Time;durP1;ratioP1;P1;durP2;ratioP2;P2;SDS_P1;SDS_P2;PMS_P1;PMS_P2;Temp;Humidity;BMP_temperature;BMP_pressure;BME280_temperature;BME280_humidity;BME280_pressure;Samples;Min_cycle;Max_cycle;Signal;HPM_P1;HPM_P2
2021/05/24 00:00:08;;;;;;;24.17;22.63;;;9.90;80.60;;;;;;5076338;28;20208;-82
2021/05/24 00:02:35;;;;;;;23.20;22.00;;;9.90;80.80;;;;;;5084888;28;20351;-81
2021/05/24 00:05:01;;;;;;;23.63;22.00;;;9.80;80.80;;;;;;5086573;28;20267;-81
2021/05/24 00:07:29;;;;;;;23.67;22.35;;;9.80;80.70;;;;;;5068031;28;20215;-82
2021/05/24 00:09:55;;;;;;;26.75;24.95;;;9.90;80.70;;;;;;5085583;28;20204;-81
2021/05/24 00:12:26;;;;;;;24.08;22.77;;;9.90;80.60;;;;;;5069451;28;20224;-81
2021/05/24 00:14:52;;;;;;;23.98;22.67;;;9.90;80.50;;;;;;5080908;28;20204;-81
2021/05/24 00:17:19;;;;;;;23.73;22.42;;;9.90;80.60;;;;;;5085915;28;20913;-82
2021/05/24 00:19:45;;;;;;;23.30;21.90;;;9.90;80.50;;;;;;5079491;28;20198;-81
2021/05/24 00:22:11;;;;;;;24.67;23.13;;;9.90;80.30;;;;;;5061329;28;20300;-80
2021/05/24 00:24:39;;;;;;;24.20;22.88;;;9.90;80.60;;;;;;5077608;28;20238;-81
2021/05/24 00:27:06;;;;;;;23.52;22.25;;;9.80;80.60;;;;;;5062622;28;20207;-81
2021/05/24 00:29:32;;;;;;;24.60;23.13;;;9.70;81.30;;;;;;5071775;28;20259;-80
2021/05/24 00:31:59;;;;;;;22.92;21.73;;;9.60;81.70;;;;;;5058760;28;20227;-80
2021/05/24 00:34:25;;;;;;;23.30;22.10;;;9.60;81.70;;;;;;5072602;28;20229;-81
2021/05/24 00:36:52;;;;;;;23.25;22.05;;;9.60;81.70;;;;;;5072323;28;20749;-80
2021/05/24 00:39:18;;;;;;;24.20;22.58;;;9.50;82.40;;;;;;5080483;28;20200;-81
2021/05/24 00:41:46;;;;;;;23.50;22.25;;;9.50;82.90;;;;;;5079523;28;20675;-80
2021/05/24 00:44:12;;;;;;;24.15;22.75;;;9.50;82.40;;;;;;5080545;28;20196;-81
2021/05/24 00:46:39;;;;;;;24.00;22.60;;;9.50;83.00;;;;;;5068328;28;20242;-81
2021/05/24 00:49:06;;;;;;;23.98;22.58;;;9.50;83.70;;;;;;5079304;28;20200;-80
2021/05/24 00:51:33;;;;;;;26.05;24.00;;;9.50;84.10;;;;;;5065719;28;20212;-80
2021/05/24 00:54:00;;;;;;;25.33;23.17;;;9.50;82.60;;;;;;5063736;28;20283;-80
2021/05/24 00:56:27;;;;;;;23.70;22.33;;;9.60;82.20;;;;;;5072629;28;20234;-80
2021/05/24 00:58:54;;;;;;;23.60;22.33;;;9.50;82.20;;;;;;5061246;28;20192;-80
2021/05/24 01:01:21;;;;;;;23.42;22.13;;;9.50;82.10;;;;;;5062803;28;20197;-80
2021/05/24 01:03:47;;;;;;;23.75;22.45;;;9.60;82.20;;;;;;5065400;28;20196;-80
2021/05/24 01:06:14;;;;;;;23.77;22.48;;;9.60;82.80;;;;;;5078545;28;20287;-80
2021/05/24 01:08:40;;;;;;;23.38;22.20;;;9.60;82.80;;;;;;5080816;28;20203;-80
2021/05/24 01:11:07;;;;;;;25.00;23.45;;;9.50;82.40;;;;;;5077579;28;20208;-80
2021/05/24 01:13:35;;;;;;;23.30;22.00;;;9.50;82.40;;;;;;5079534;28;20200;-80
2021/05/24 01:16:03;;;;;;;26.60;23.92;;;9.60;82.10;;;;;;5078582;28;20326;-81
2021/05/24 01:18:30;;;;;;;23.67;22.08;;;9.50;82.00;;;;;;5080009;28;20196;-80
2021/05/24 01:20:56;;;;;;;23.45;22.15;;;9.50;82.90;;;;;;5077843;28;20226;-80
2021/05/24 01:23:27;;;;;;;23.50;22.30;;;9.50;82.50;;;;;;5080240;28;20973;-80
2021/05/24 01:25:54;;;;;;;23.33;22.02;;;9.60;82.00;;;;;;5078876;28;20204;-80
2021/05/24 01:28:21;;;;;;;23.55;22.35;;;9.50;82.10;;;;;;5080688;28;20199;-80
2021/05/24 01:30:48;;;;;;;24.45;22.75;;;9.40;82.40;;;;;;5076924;28;20212;-80
2021/05/24 01:33:16;;;;;;;23.60;22.38;;;9.40;82.90;;;;;;5064375;28;20221;-80
2021/05/24 01:35:43;;;;;;;24.95;23.40;;;9.40;83.60;;;;;;5078794;28;20207;-80
2021/05/24 01:38:12;;;;;;;25.10;23.52;;;9.30;83.30;;;;;;5080948;28;20203;-80
2021/05/24 01:40:40;;;;;;;24.58;23.10;;;9.30;83.30;;;;;;5078507;28;20539;-80
2021/05/24 01:43:07;;;;;;;24.02;22.40;;;9.30;83.50;;;;;;5064819;28;20300;-80
2021/05/24 01:45:33;;;;;;;23.52;22.13;;;9.30;83.80;;;;;;5072148;28;20252;-80
2021/05/24 01:48:00;;;;;;;24.80;23.25;;;9.40;83.70;;;;;;5059746;28;20280;-80
2021/05/24 01:50:26;;;;;;;24.77;23.42;;;9.40;83.40;;;;;;5075599;28;20216;-80
2021/05/24 01:52:53;;;;;;;23.95;22.65;;;9.30;83.10;;;;;;5067335;28;20225;-80
2021/05/24 01:55:19;;;;;;;23.45;22.15;;;9.30;83.40;;;;;;5074687;28;20678;-80
2021/05/24 01:57:47;;;;;;;23.17;21.73;;;9.30;83.10;;;;;;5060892;28;20197;-80
2021/05/24 02:00:16;;;;;;;24.10;22.80;;;9.30;84.50;;;;;;5077333;28;20711;-80
2021/05/24 02:02:43;;;;;;;22.52;21.33;;;9.30;83.70;;;;;;5068796;28;20212;-80
2021/05/24 02:05:11;;;;;;;23.55;22.25;;;9.30;83.70;;;;;;5078812;28;20203;-80
2021/05/24 02:07:38;;;;;;;24.25;22.83;;;9.30;83.50;;;;;;5078485;28;20299;-80
2021/05/24 02:10:06;;;;;;;23.60;22.40;;;9.20;83.70;;;;;;5076819;28;20254;-80
2021/05/24 02:12:33;;;;;;;24.42;22.83;;;9.10;84.80;;;;;;5084920;28;20283;-81
2021/05/24 02:15:00;;;;;;;23.65;22.25;;;9.00;85.90;;;;;;5089749;28;20223;-81
2021/05/24 02:17:26;;;;;;;23.35;22.13;;;9.00;85.10;;;;;;5069698;28;20256;-81
2021/05/24 02:19:53;;;;;;;23.50;22.10;;;9.00;84.90;;;;;;5084578;28;20287;-82
2021/05/24 02:22:20;;;;;;;22.75;21.40;;;9.10;84.70;;;;;;5071836;28;20244;-81
2021/05/24 02:24:46;;;;;;;23.67;22.02;;;9.10;83.70;;;;;;5083426;28;20202;-81
2021/05/24 02:27:13;;;;;;;22.48;21.33;;;9.00;84.40;;;;;;5089818;28;20215;-82
2021/05/24 02:29:41;;;;;;;22.73;21.48;;;9.00;84.40;;;;;;5090551;28;20354;-81
2021/05/24 02:32:09;;;;;;;24.50;22.90;;;9.10;84.20;;;;;;5088334;28;20215;-81
2021/05/24 02:34:36;;;;;;;29.02;24.83;;;9.00;84.00;;;;;;5089966;28;20222;-81
2021/05/24 02:37:04;;;;;;;25.70;23.85;;;8.90;84.60;;;;;;5089521;28;20772;-81
2021/05/24 02:39:31;;;;;;;23.30;22.00;;;8.90;84.80;;;;;;5089892;28;20237;-81
2021/05/24 02:41:57;;;;;;;23.50;22.08;;;8.80;86.70;;;;;;5086775;28;20268;-82
2021/05/24 02:44:24;;;;;;;25.05;23.25;;;8.80;85.70;;;;;;5085708;28;20196;-81
2021/05/24 02:46:50;;;;;;;29.52;23.55;;;8.90;85.20;;;;;;5087946;28;20204;-81
2021/05/24 02:49:17;;;;;;;26.25;23.50;;;9.00;84.70;;;;;;5085108;28;20207;-82
2021/05/24 02:51:44;;;;;;;23.75;22.25;;;8.90;84.70;;;;;;5086562;28;20215;-82
2021/05/24 02:54:10;;;;;;;25.17;23.77;;;9.00;86.10;;;;;;5082362;28;20208;-81
2021/05/24 02:56:37;;;;;;;26.55;23.23;;;9.00;85.50;;;;;;5082681;28;20265;-81
2021/05/24 02:59:05;;;;;;;25.13;23.35;;;9.00;85.20;;;;;;5089503;28;20242;-81
2021/05/24 03:01:32;;;;;;;179.88;42.88;;;9.00;85.00;;;;;;5088503;28;20211;-81
2021/05/24 03:04:02;;;;;;;29.13;26.00;;;9.00;84.70;;;;;;5086455;28;20196;-80
2021/05/24 03:06:29;;;;;;;24.83;23.05;;;9.00;84.40;;;;;;5082937;28;20200;-83
2021/05/24 03:08:55;;;;;;;23.65;22.05;;;9.00;85.30;;;;;;5090114;28;20220;-83
2021/05/24 03:11:22;;;;;;;23.20;21.80;;;9.10;84.80;;;;;;5088341;28;20262;-82
2021/05/24 03:13:49;;;;;;;23.63;22.23;;;9.10;84.10;;;;;;5087775;28;20250;-83
2021/05/24 03:16:16;;;;;;;23.58;22.27;;;9.10;83.70;;;;;;5088632;28;20231;-81
2021/05/24 03:18:42;;;;;;;23.67;21.90;;;9.20;83.50;;;;;;5076115;28;20209;-77
2021/05/24 03:21:09;;;;;;;25.38;23.08;;;9.30;83.20;;;;;;5067310;28;20575;-80
2021/05/24 03:23:36;;;;;;;24.15;22.75;;;9.10;84.10;;;;;;5073042;28;20227;-80
2021/05/24 03:26:03;;;;;;;266.15;59.78;;;9.10;84.10;;;;;;5077851;28;20254;-80
2021/05/24 03:28:29;;;;;;;25.25;22.90;;;9.00;83.90;;;;;;5075415;28;20259;-81
2021/05/24 03:30:56;;;;;;;37.72;27.70;;;9.10;83.90;;;;;;5075813;28;20295;-80
2021/05/24 03:33:22;;;;;;;26.98;24.73;;;9.10;83.80;;;;;;5075173;28;20298;-80
2021/05/24 03:35:49;;;;;;;24.05;22.45;;;9.00;84.20;;;;;;5069490;28;20220;-80
2021/05/24 03:38:15;;;;;;;24.02;22.40;;;9.10;84.40;;;;;;5076484;28;20278;-80
2021/05/24 03:40:43;;;;;;;26.92;23.60;;;9.10;84.00;;;;;;5073192;28;20279;-80
2021/05/24 03:43:09;;;;;;;23.10;21.90;;;9.00;84.40;;;;;;5076131;28;20705;-80
2021/05/24 03:45:38;;;;;;;23.17;21.88;;;9.00;84.20;;;;;;5074352;28;20196;-81
2021/05/24 03:48:06;;;;;;;23.52;22.23;;;9.10;84.30;;;;;;5075304;28;20223;-80
2021/05/24 03:50:32;;;;;;;23.17;21.95;;;9.00;84.30;;;;;;5071633;28;20234;-80
2021/05/24 03:52:59;;;;;;;23.00;21.70;;;9.00;84.40;;;;;;5074062;28;20307;-80
2021/05/24 03:55:26;;;;;;;23.17;21.63;;;9.00;84.40;;;;;;5074950;28;20699;-80
2021/05/24 03:57:54;;;;;;;24.50;22.58;;;9.10;84.00;;;;;;5076361;28;20188;-80
2021/05/24 04:00:21;;;;;;;24.30;22.60;;;9.20;83.50;;;;;;5075616;28;20195;-81
2021/05/24 04:02:48;;;;;;;23.98;22.40;;;9.20;83.10;;;;;;5075163;28;20242;-81
2021/05/24 04:05:19;;;;;;;23.95;22.55;;;9.20;83.20;;;;;;5060294;28;20267;-80
2021/05/24 04:07:49;;;;;;;24.67;23.17;;;9.20;83.10;;;;;;5058237;28;20207;-80
2021/05/24 04:10:16;;;;;;;26.75;24.45;;;9.20;83.00;;;;;;5076870;28;20520;-80
2021/05/24 04:12:43;;;;;;;25.13;23.13;;;9.10;83.20;;;;;;5077525;28;20994;-80
2021/05/24 04:15:12;;;;;;;22.15;20.83;;;9.10;83.70;;;;;;5073195;28;20209;-81
2021/05/24 04:17:40;;;;;;;23.65;22.45;;;9.10;85.30;;;;;;5055512;28;20339;-81
2021/05/24 04:20:09;;;;;;;22.95;21.65;;;9.10;84.50;;;;;;5070929;28;20192;-81
2021/05/24 04:22:36;;;;;;;23.58;22.17;;;9.30;83.90;;;;;;5077239;28;20281;-81
2021/05/24 04:25:03;;;;;;;24.25;22.85;;;9.30;83.10;;;;;;5075052;28;20208;-81
2021/05/24 04:27:29;;;;;;;22.25;21.10;;;9.30;83.10;;;;;;5055829;28;20284;-80
2021/05/24 04:29:55;;;;;;;23.23;21.80;;;9.40;83.40;;;;;;5068367;28;20227;-80
2021/05/24 04:32:23;;;;;;;23.10;21.90;;;9.50;82.60;;;;;;5066743;28;20226;-80
2021/05/24 04:34:51;;;;;;;22.90;21.60;;;9.60;82.10;;;;;;5077163;28;20204;-81
2021/05/24 04:37:17;;;;;;;24.85;23.20;;;9.70;81.40;;;;;;5067778;28;20208;-80
2021/05/24 04:39:45;;;;;;;23.60;22.20;;;9.70;80.80;;;;;;5077807;28;20295;-80
2021/05/24 04:42:12;;;;;;;24.30;22.90;;;9.70;80.60;;;;;;5058244;28;20243;-80
2021/05/24 04:44:39;;;;;;;24.55;23.15;;;9.70;81.20;;;;;;5069277;28;20250;-81
2021/05/24 04:47:05;;;;;;;24.27;22.98;;;9.60;81.40;;;;;;5073978;28;20218;-80
2021/05/24 04:49:33;;;;;;;24.20;22.80;;;9.70;81.50;;;;;;5069548;28;20199;-80
2021/05/24 04:51:59;;;;;;;23.67;22.38;;;9.80;81.40;;;;;;5056951;28;20224;-80
2021/05/24 04:54:26;;;;;;;95.38;34.28;;;9.80;80.90;;;;;;5068051;28;20206;-81
2021/05/24 04:56:52;;;;;;;39.00;28.05;;;9.80;80.70;;;;;;5075816;28;20219;-80
2021/05/24 04:59:19;;;;;;;26.02;23.95;;;9.90;80.60;;;;;;5076516;28;20307;-81
2021/05/24 05:01:47;;;;;;;27.30;25.05;;;9.90;80.20;;;;;;5072424;28;20299;-81
2021/05/24 05:04:14;;;;;;;41.05;28.27;;;10.00;80.30;;;;;;5074445;28;20693;-86
2021/05/24 05:06:41;;;;;;;23.80;22.48;;;10.10;80.00;;;;;;5061466;28;20952;-79
2021/05/24 05:09:08;;;;;;;25.52;24.08;;;10.30;79.50;;;;;;5066406;28;20714;-80
2021/05/24 05:11:34;;;;;;;23.75;22.48;;;10.30;79.50;;;;;;5069172;28;20239;-80
2021/05/24 05:14:00;;;;;;;24.63;23.23;;;10.40;79.50;;;;;;5057923;28;20311;-81
2021/05/24 05:16:27;;;;;;;25.92;23.85;;;10.50;79.50;;;;;;5056743;28;20225;-80
2021/05/24 05:18:53;;;;;;;24.95;23.55;;;10.50;78.80;;;;;;5065150;28;20196;-80
2021/05/24 05:21:20;;;;;;;25.25;23.75;;;10.60;78.50;;;;;;5067851;28;20292;-80
2021/05/24 05:23:47;;;;;;;25.83;24.33;;;10.80;77.60;;;;;;5067180;28;20719;-80
2021/05/24 05:26:13;;;;;;;26.63;24.92;;;10.90;76.80;;;;;;5069914;28;20515;-80
2021/05/24 05:28:40;;;;;;;24.40;23.10;;;10.90;76.70;;;;;;5066282;28;20200;-80
2021/05/24 05:31:06;;;;;;;25.23;23.73;;;11.00;76.60;;;;;;5077718;28;20470;-80
2021/05/24 05:33:33;;;;;;;24.97;23.63;;;11.00;76.40;;;;;;5079057;28;20583;-80
2021/05/24 05:36:00;;;;;;;25.47;23.97;;;11.00;76.20;;;;;;5070310;28;20457;-80
2021/05/24 05:38:28;;;;;;;24.77;23.37;;;11.10;75.90;;;;;;5075227;28;20852;-80
2021/05/24 05:40:55;;;;;;;25.63;23.93;;;11.10;76.00;;;;;;5078757;28;20453;-82
2021/05/24 05:43:22;;;;;;;24.77;23.37;;;11.30;75.50;;;;;;5080745;28;20487;-80
2021/05/24 05:45:48;;;;;;;24.40;23.00;;;11.40;75.10;;;;;;5080684;28;20459;-82
2021/05/24 05:48:15;;;;;;;23.80;22.50;;;11.40;75.00;;;;;;5083936;28;20538;-83
2021/05/24 05:50:41;;;;;;;24.47;23.07;;;11.40;74.80;;;;;;5067369;28;20483;-85
2021/05/24 05:53:08;;;;;;;25.08;23.65;;;11.50;74.90;;;;;;5071540;28;20469;-80
2021/05/24 05:55:34;;;;;;;25.17;23.77;;;11.80;74.30;;;;;;5059910;28;20200;-82
2021/05/24 05:58:01;;;;;;;26.63;24.63;;;11.60;74.40;;;;;;5066577;28;20535;-81
2021/05/24 06:00:28;;;;;;;28.50;25.90;;;11.60;74.80;;;;;;5070072;28;20473;-78
2021/05/24 06:02:54;;;;;;;25.20;23.80;;;11.60;75.00;;;;;;5074870;28;21310;-83
2021/05/24 06:05:21;;;;;;;24.83;23.10;;;11.70;75.10;;;;;;5071126;28;20471;-82
2021/05/24 06:07:47;;;;;;;31.33;26.63;;;12.00;74.80;;;;;;5057854;28;20874;-80
2021/05/24 06:10:15;;;;;;;27.37;25.67;;;12.00;73.80;;;;;;5066259;28;20561;-84
2021/05/24 06:12:45;;;;;;;27.47;25.60;;;12.00;73.70;;;;;;5069244;28;20477;-81
2021/05/24 06:15:15;;;;;;;26.80;24.90;;;12.10;73.50;;;;;;5069730;28;20462;-83
2021/05/24 06:17:42;;;;;;;26.60;25.20;;;12.10;73.50;;;;;;5075101;28;20457;-78
2021/05/24 06:20:10;;;;;;;25.40;23.90;;;12.20;73.40;;;;;;5080797;28;20475;-81
2021/05/24 06:22:36;;;;;;;27.10;24.57;;;12.40;73.00;;;;;;5074720;28;20482;-78
2021/05/24 06:25:04;;;;;;;30.43;27.67;;;12.50;72.80;;;;;;5062530;28;20482;-79
2021/05/24 06:27:30;;;;;;;24.63;23.13;;;12.80;72.20;;;;;;5074005;28;20454;-79
2021/05/24 06:29:56;;;;;;;25.40;23.80;;;13.00;71.00;;;;;;5056081;28;20545;-77
2021/05/24 06:32:24;;;;;;;25.20;23.80;;;13.10;70.80;;;;;;5058614;28;20564;-79
2021/05/24 06:34:50;;;;;;;29.50;27.80;;;13.40;70.30;;;;;;5067976;28;20549;-78
2021/05/24 06:37:17;;;;;;;25.47;23.83;;;13.40;69.90;;;;;;5066302;28;20921;-78
2021/05/24 06:39:43;;;;;;;41.93;32.20;;;13.50;70.00;;;;;;5062006;28;20477;-78
2021/05/24 06:42:10;;;;;;;32.20;29.10;;;13.60;72.00;;;;;;5070695;28;20477;-80
2021/05/24 06:44:36;;;;;;;25.57;24.07;;;13.90;75.70;;;;;;5072870;28;20635;-80
2021/05/24 06:47:03;;;;;;;26.57;24.90;;;14.00;76.50;;;;;;5060303;28;20455;-76
2021/05/24 06:49:31;;;;;;;26.00;24.30;;;14.30;70.40;;;;;;5068336;28;20553;-78
2021/05/24 06:51:57;;;;;;;68.83;35.20;;;14.50;67.60;;;;;;5065333;28;20478;-76
2021/05/24 06:54:24;;;;;;;25.00;23.60;;;14.50;67.10;;;;;;5072174;28;20472;-78
2021/05/24 06:56:50;;;;;;;28.00;25.70;;;14.80;66.40;;;;;;5063957;28;20813;-78
2021/05/24 06:59:17;;;;;;;27.63;24.90;;;15.00;72.00;;;;;;5068664;28;20498;-80
2021/05/24 07:01:43;;;;;;;27.83;25.57;;;15.20;69.20;;;;;;5056142;28;20477;-80
2021/05/24 07:04:10;;;;;;;25.43;24.03;;;15.20;65.60;;;;;;5062052;28;20454;-81
2021/05/24 07:06:37;;;;;;;26.33;24.57;;;15.50;64.50;;;;;;5070155;28;20456;-77
2021/05/24 07:09:04;;;;;;;28.47;26.23;;;15.60;64.00;;;;;;5067108;28;20458;-77
2021/05/24 07:11:30;;;;;;;26.07;24.37;;;15.70;63.90;;;;;;5062529;28;20478;-77
2021/05/24 07:13:57;;;;;;;27.53;25.80;;;15.80;63.70;;;;;;5068448;28;20462;-77
2021/05/24 07:16:23;;;;;;;23.67;22.37;;;16.10;64.10;;;;;;5060135;28;20454;-75
2021/05/24 07:18:50;;;;;;;24.07;22.67;;;16.30;61.90;;;;;;5068723;28;20470;-75
2021/05/24 07:21:16;;;;;;;27.30;24.60;;;16.20;61.50;;;;;;5064424;28;20462;-80
2021/05/24 07:23:43;;;;;;;23.73;22.53;;;16.30;61.50;;;;;;5067663;28;20595;-77
2021/05/24 07:26:10;;;;;;;24.73;23.43;;;16.30;61.30;;;;;;5053963;28;20471;-78
2021/05/24 07:28:36;;;;;;;24.30;23.00;;;16.20;63.40;;;;;;5061792;28;20462;-78
2021/05/24 07:31:02;;;;;;;29.63;27.83;;;16.20;61.60;;;;;;5062599;28;20494;-78
2021/05/24 07:33:29;;;;;;;24.43;23.00;;;16.30;61.30;;;;;;5061243;28;20485;-78
2021/05/24 07:35:55;;;;;;;23.33;22.13;;;16.20;60.80;;;;;;5063785;28;20458;-78
2021/05/24 07:38:22;;;;;;;24.33;23.03;;;16.30;60.90;;;;;;5067315;28;20636;-78
2021/05/24 07:40:49;;;;;;;25.60;23.63;;;16.50;61.20;;;;;;5066231;28;20584;-78
2021/05/24 07:43:16;;;;;;;26.67;24.80;;;16.80;60.30;;;;;;5063232;28;21190;-78
2021/05/24 07:45:42;;;;;;;25.20;23.80;;;17.00;59.30;;;;;;5061321;28;20459;-78
2021/05/24 07:48:08;;;;;;;25.10;23.60;;;17.10;58.80;;;;;;5063593;28;20548;-78
2021/05/24 07:50:35;;;;;;;25.30;23.90;;;17.40;58.00;;;;;;5063717;28;21156;-77
2021/05/24 07:53:01;;;;;;;23.93;22.60;;;17.60;57.70;;;;;;5058554;28;20489;-77
2021/05/24 07:55:28;;;;;;;25.80;24.10;;;17.80;57.60;;;;;;5067308;28;20462;-78
2021/05/24 07:57:55;;;;;;;25.17;23.67;;;17.80;56.80;;;;;;5068489;28;20556;-78
2021/05/24 08:00:25;;;;;;;28.50;26.80;;;17.70;56.80;;;;;;5061324;28;21131;-77
2021/05/24 08:02:52;;;;;;;26.50;25.00;;;17.70;57.00;;;;;;5059849;28;20481;-78
2021/05/24 08:05:19;;;;;;;25.70;24.20;;;17.80;57.10;;;;;;5067798;28;20470;-78
2021/05/24 08:07:46;;;;;;;25.50;24.10;;;18.00;58.10;;;;;;5067215;28;20537;-79
2021/05/24 08:10:16;;;;;;;26.20;24.70;;;18.10;57.50;;;;;;5063710;27;20478;-79
2021/05/24 08:12:42;;;;;;;25.60;24.13;;;18.20;56.20;;;;;;5068226;28;20551;-78
2021/05/24 08:15:14;;;;;;;29.43;26.73;;;18.30;55.10;;;;;;5067286;28;20518;-80
2021/05/24 08:17:41;;;;;;;24.90;23.47;;;18.50;55.40;;;;;;5064514;28;20517;-79
2021/05/24 08:20:10;;;;;;;24.30;22.80;;;18.50;56.00;;;;;;5057859;28;20462;-79
2021/05/24 08:22:37;;;;;;;24.73;23.23;;;18.70;55.30;;;;;;5061014;28;20999;-77
2021/05/24 08:25:05;;;;;;;24.27;22.77;;;18.80;54.60;;;;;;5057404;28;20473;-79
2021/05/24 08:27:31;;;;;;;27.40;25.70;;;19.10;53.10;;;;;;5056334;28;20549;-79
2021/05/24 08:29:57;;;;;;;24.27;22.90;;;19.20;52.10;;;;;;5058320;28;20492;-78
2021/05/24 08:32:25;;;;;;;25.03;23.63;;;19.30;52.10;;;;;;5055305;28;20584;-79
2021/05/24 08:34:51;;;;;;;108.33;36.80;;;19.50;52.20;;;;;;5053504;28;20961;-79
2021/05/24 08:37:18;;;;;;;25.80;23.90;;;19.50;52.50;;;;;;5057187;28;20450;-79
2021/05/24 08:39:44;;;;;;;26.93;25.43;;;19.50;52.00;;;;;;5058699;28;20492;-79
2021/05/24 08:42:12;;;;;;;26.30;24.20;;;19.60;51.80;;;;;;5058240;28;20937;-79
2021/05/24 08:44:43;;;;;;;27.00;25.00;;;19.70;51.50;;;;;;5054959;28;21258;-79
2021/05/24 08:47:10;;;;;;;26.60;25.00;;;19.70;51.80;;;;;;5050091;28;20468;-78
2021/05/24 08:49:37;;;;;;;24.30;22.90;;;19.70;52.50;;;;;;5061569;28;20462;-79
2021/05/24 08:52:04;;;;;;;27.70;25.33;;;19.70;52.00;;;;;;5057248;28;20496;-79
2021/05/24 08:54:32;;;;;;;24.23;22.83;;;19.50;52.30;;;;;;5059878;28;20458;-78
2021/05/24 08:56:58;;;;;;;25.13;23.43;;;19.70;52.20;;;;;;5056972;28;20461;-78
2021/05/24 08:59:25;;;;;;;24.97;23.43;;;19.90;51.40;;;;;;5063033;28;21023;-78
2021/05/24 09:01:51;;;;;;;28.07;26.13;;;20.10;50.70;;;;;;5063219;28;20564;-84
2021/05/24 09:04:18;;;;;;;28.10;23.70;;;20.20;50.50;;;;;;5064101;28;20472;-77
2021/05/24 09:06:47;;;;;;;23.50;22.00;;;20.20;50.10;;;;;;5060124;28;20472;-78
2021/05/24 09:09:15;;;;;;;24.77;23.37;;;20.50;50.10;;;;;;5064092;28;20453;-78
2021/05/24 09:11:42;;;;;;;25.50;24.00;;;20.70;49.20;;;;;;5062434;28;20474;-78
2021/05/24 09:14:18;;;;;;;24.90;22.87;;;20.70;48.50;;;;;;5058052;28;20691;-78
2021/05/24 09:16:44;;;;;;;23.13;21.73;;;20.80;49.00;;;;;;5062734;28;20572;-78
2021/05/24 09:19:13;;;;;;;23.27;22.00;;;21.00;48.70;;;;;;5063538;28;20466;-78
2021/05/24 09:21:49;;;;;;;23.37;22.13;;;21.20;48.50;;;;;;5065453;28;20466;-78
2021/05/24 09:24:23;;;;;;;29.20;24.80;;;21.50;49.00;;;;;;5064537;28;20532;-78
2021/05/24 09:26:50;;;;;;;23.80;22.40;;;21.70;48.40;;;;;;5054046;27;20456;-78
2021/05/24 09:29:22;;;;;;;25.80;24.40;;;21.80;48.10;;;;;;5060321;28;20505;-78
2021/05/24 09:31:53;;;;;;;24.43;22.80;;;22.10;47.60;;;;;;5058301;28;21001;-78
2021/05/24 09:34:21;;;;;;;26.07;24.67;;;22.20;47.00;;;;;;5066235;28;20803;-77
2021/05/24 09:37:00;;;;;;;23.70;22.40;;;22.50;47.10;;;;;;5051328;28;20470;-78
2021/05/24 09:39:31;;;;;;;36.43;34.73;;;22.70;46.80;;;;;;5062214;28;20543;-78
2021/05/24 09:42:01;;;;;;;24.70;23.40;;;22.80;46.00;;;;;;5055518;28;20884;-78
2021/05/24 09:44:30;;;;;;;29.17;27.33;;;22.90;46.10;;;;;;5061006;28;20579;-79
2021/05/24 09:46:57;;;;;;;24.10;22.70;;;22.90;46.00;;;;;;5060542;28;20485;-79
2021/05/24 09:49:24;;;;;;;23.33;22.13;;;23.00;46.40;;;;;;5061674;28;20573;-79
2021/05/24 09:51:52;;;;;;;25.37;23.97;;;23.10;46.00;;;;;;5061222;28;20528;-79
2021/05/24 09:54:21;;;;;;;24.43;23.03;;;23.20;46.50;;;;;;5061120;28;20716;-78
2021/05/24 09:56:48;;;;;;;24.47;23.07;;;23.40;45.90;;;;;;5061949;28;20507;-78
2021/05/24 09:59:16;;;;;;;24.53;23.23;;;23.40;45.40;;;;;;5056887;28;20580;-79
2021/05/24 10:01:47;;;;;;;23.90;22.70;;;23.40;46.60;;;;;;5060585;28;20917;-79
2021/05/24 10:04:15;;;;;;;23.83;22.53;;;23.70;45.50;;;;;;5063442;28;20478;-78
2021/05/24 10:06:42;;;;;;;26.07;24.50;;;24.00;45.10;;;;;;5059777;28;20485;-78
2021/05/24 10:09:10;;;;;;;25.63;24.03;;;24.00;45.40;;;;;;5060019;28;20477;-78
2021/05/24 10:11:42;;;;;;;25.73;24.33;;;24.10;48.40;;;;;;5057771;28;20482;-78
2021/05/24 10:14:09;;;;;;;26.33;24.73;;;24.20;46.10;;;;;;5054801;28;20471;-78
2021/05/24 10:16:38;;;;;;;24.60;23.00;;;24.30;44.10;;;;;;5059667;28;20458;-78
2021/05/24 10:19:05;;;;;;;24.70;23.20;;;24.30;44.20;;;;;;5060823;28;20809;-77
2021/05/24 10:21:32;;;;;;;24.40;23.10;;;24.30;44.10;;;;;;5059937;28;20478;-77
2021/05/24 10:23:59;;;;;;;24.30;22.90;;;24.50;43.30;;;;;;5062501;28;20916;-77
2021/05/24 10:26:26;;;;;;;25.40;24.00;;;24.40;44.20;;;;;;5060081;28;20468;-77
2021/05/24 10:28:55;;;;;;;25.03;23.73;;;24.40;44.00;;;;;;5063837;28;20473;-77
2021/05/24 10:31:24;;;;;;;25.07;23.57;;;24.50;44.10;;;;;;5059096;28;21952;-77
2021/05/24 10:33:51;;;;;;;25.27;23.80;;;24.50;43.70;;;;;;5059391;28;20473;-77
2021/05/24 10:36:23;;;;;;;24.00;22.60;;;24.60;42.80;;;;;;5056663;28;21261;-77
2021/05/24 10:39:06;;;;;;;24.97;23.57;;;24.70;42.90;;;;;;5061102;28;20450;-77
2021/05/24 10:41:47;;;;;;;23.83;22.63;;;24.60;42.40;;;;;;5060031;28;20474;-77
2021/05/24 10:44:16;;;;;;;24.17;22.97;;;24.70;41.10;;;;;;5058801;28;20465;-77
2021/05/24 10:46:43;;;;;;;25.13;23.73;;;24.30;41.30;;;;;;5057986;28;20497;-77
2021/05/24 10:49:21;;;;;;;25.00;23.70;;;24.30;41.50;;;;;;5060085;28;20468;-77
2021/05/24 10:51:53;;;;;;;23.80;22.53;;;24.20;41.40;;;;;;5056091;28;20524;-77
2021/05/24 10:54:29;;;;;;;22.80;21.60;;;24.30;41.60;;;;;;5060565;28;20450;-77
2021/05/24 10:57:22;;;;;;;24.30;23.00;;;24.30;40.90;;;;;;5061113;28;20552;-76
2021/05/24 10:59:55;;;;;;;23.50;22.00;;;24.30;41.10;;;;;;5058684;28;20548;-76
2021/05/24 11:02:40;;;;;;;39.43;27.60;;;24.30;40.60;;;;;;5060105;28;20482;-76
2021/05/24 11:05:22;;;;;;;25.63;23.20;;;24.20;40.10;;;;;;5058989;28;20458;-76
2021/05/24 11:07:50;;;;;;;24.30;23.00;;;24.40;40.00;;;;;;5056779;28;20523;-76
2021/05/24 11:10:21;;;;;;;25.53;23.87;;;24.20;39.80;;;;;;5059823;28;20486;-76
2021/05/24 11:12:50;;;;;;;25.33;23.33;;;24.20;40.50;;;;;;5056370;28;20542;-77
2021/05/24 11:15:19;;;;;;;251.77;56.77;;;24.20;40.30;;;;;;5055978;28;20480;-76
2021/05/24 11:18:13;;;;;;;25.77;24.40;;;24.20;40.50;;;;;;5058590;28;20461;-76
2021/05/24 11:20:44;;;;;;;26.60;25.20;;;24.40;39.00;;;;;;5031963;28;20883;-76
2021/05/24 11:23:18;;;;;;;25.20;23.90;;;24.20;38.80;;;;;;5058845;28;20579;-76
2021/05/24 11:25:56;;;;;;;26.43;24.47;;;24.40;37.70;;;;;;5059979;28;21308;-76
2021/05/24 11:28:33;;;;;;;27.37;24.67;;;24.30;36.30;;;;;;5053410;27;20474;-77
2021/05/24 11:31:13;;;;;;;24.07;22.67;;;24.40;36.70;;;;;;5057394;28;20478;-76
2021/05/24 11:33:47;;;;;;;24.37;23.00;;;24.70;36.50;;;;;;5059138;28;20842;-77
2021/05/24 11:36:14;;;;;;;23.57;22.37;;;24.60;37.20;;;;;;5059669;28;20454;-77
2021/05/24 11:38:59;;;;;;;24.30;23.07;;;24.60;37.00;;;;;;5061061;28;20561;-77
2021/05/24 11:41:29;;;;;;;23.23;22.03;;;24.50;37.70;;;;;;5058281;28;20513;-77
2021/05/24 11:43:56;;;;;;;25.40;23.90;;;24.60;37.20;;;;;;5057014;28;20451;-77
2021/05/24 11:46:23;;;;;;;23.87;22.57;;;24.70;37.10;;;;;;5058169;28;20465;-77
2021/05/24 11:48:51;;;;;;;23.60;22.20;;;24.60;35.80;;;;;;5058375;28;20464;-77
2021/05/24 11:51:20;;;;;;;23.87;22.57;;;24.60;35.10;;;;;;5059540;28;20486;-77
2021/05/24 11:54:00;;;;;;;24.20;22.80;;;24.70;34.70;;;;;;5056518;28;20494;-76
2021/05/24 11:56:37;;;;;;;24.97;23.67;;;24.60;35.70;;;;;;5060866;28;21113;-76
2021/05/24 11:59:05;;;;;;;24.07;22.80;;;24.50;34.60;;;;;;5050463;28;20459;-76
2021/05/24 12:01:33;;;;;;;25.37;24.03;;;24.30;35.10;;;;;;5050009;28;20989;-77
2021/05/24 12:04:04;;;;;;;25.17;23.77;;;24.50;36.10;;;;;;5047397;28;20455;-77
2021/05/24 12:06:47;;;;;;;25.07;23.47;;;24.40;37.30;;;;;;5054485;28;20461;-76
2021/05/24 12:09:14;;;;;;;25.13;23.63;;;24.60;40.80;;;;;;5054145;28;20459;-76
2021/05/24 12:11:56;;;;;;;28.03;25.67;;;24.70;42.20;;;;;;5060421;28;20482;-77
2021/05/24 12:14:22;;;;;;;25.17;23.67;;;24.90;42.80;;;;;;5052085;28;20564;-77
2021/05/24 12:16:51;;;;;;;25.53;24.13;;;25.00;41.70;;;;;;5051709;28;20545;-77
2021/05/24 12:19:22;;;;;;;26.07;24.23;;;25.30;40.50;;;;;;5062339;28;20458;-77
2021/05/24 12:21:49;;;;;;;23.90;22.70;;;25.40;39.70;;;;;;5047379;28;20475;-77
2021/05/24 12:24:16;;;;;;;25.83;24.33;;;25.60;39.60;;;;;;5059073;28;20454;-76
2021/05/24 12:26:51;;;;;;;26.93;25.40;;;25.70;39.80;;;;;;5056529;28;20469;-77
2021/05/24 12:29:24;;;;;;;26.23;24.53;;;25.80;40.10;;;;;;5068840;28;20477;-81
2021/05/24 12:31:54;;;;;;;26.43;24.40;;;25.80;39.30;;;;;;5049863;28;20629;-76
2021/05/24 12:34:31;;;;;;;24.93;23.63;;;25.70;39.00;;;;;;5043853;28;20510;-77